4XDAG LLHA-LCLK
Flight info
| Callsign | 4XDAG |
|---|---|
| Flight time | 1h 25m |
| Altitude | 10000 |
| Route | LLHA/33 GALIM DCT VELOX B17 EMEDA LCLK/22 |
| Aircraft | P28R/L-SC/5633 |
Departure
| Time | 2026-04-28 20:29 |
|---|---|
| Airport | Uri Michaeli Haifa International Airport (LLHA) |
Arrival
| Time | 2026-04-28 21:55 |
|---|---|
| Airport | Larnaca International Airport (LCLK) |
| Time | Latitude | Longitude | Altitude | Speed | Heading |
|---|---|---|---|---|---|
| 2026-04-28 20:21 | 32.81169 | 35.04178 | 19 ft | 0 kts | 131° |
| 2026-04-28 20:23 | 32.81162 | 35.04186 | 19 ft | 3 kts | 139° |
| 2026-04-28 20:23 | 32.81148 | 35.04206 | 20 ft | 5 kts | 102° |
| 2026-04-28 20:23 | 32.81155 | 35.04232 | 20 ft | 0 kts | 75° |
| 2026-04-28 20:26 | 32.81159 | 35.04250 | 20 ft | 8 kts | 76° |
| 2026-04-28 20:26 | 32.81138 | 35.04321 | 15 ft | 14 kts | 160° |
| 2026-04-28 20:27 | 32.81034 | 35.04365 | 22 ft | 18 kts | 161° |
| 2026-04-28 20:27 | 32.80910 | 35.04420 | 23 ft | 20 kts | 161° |
| 2026-04-28 20:27 | 32.80762 | 35.04486 | 21 ft | 24 kts | 158° |
| 2026-04-28 20:27 | 32.80608 | 35.04553 | 20 ft | 22 kts | 157° |
| 2026-04-28 20:28 | 32.80505 | 35.04585 | 16 ft | 11 kts | 170° |
| 2026-04-28 20:28 | 32.80512 | 35.04597 | 16 ft | 5 kts | 332° |
| 2026-04-28 20:28 | 32.80643 | 35.04538 | 21 ft | 43 kts | 339° |
| 2026-04-28 20:28 | 32.81055 | 35.04359 | 22 ft | 80 kts | 340° |
| 2026-04-28 20:29 | 32.81612 | 35.04116 | 135 ft | 84 kts | 339° |
| 2026-04-28 20:29 | 32.82151 | 35.03878 | 310 ft | 84 kts | 336° |
| 2026-04-28 20:29 | 32.82698 | 35.03629 | 477 ft | 84 kts | 340° |
| 2026-04-28 20:29 | 32.83292 | 35.03671 | 639 ft | 88 kts | 20° |
| 2026-04-28 20:30 | 32.83641 | 35.04222 | 803 ft | 88 kts | 83° |
| 2026-04-28 20:30 | 32.83302 | 35.04775 | 927 ft | 91 kts | 155° |
| 2026-04-28 20:30 | 32.82756 | 35.05097 | 1118 ft | 89 kts | 150° |
| 2026-04-28 20:30 | 32.82201 | 35.05426 | 1300 ft | 88 kts | 151° |
| 2026-04-28 20:31 | 32.81662 | 35.05784 | 1456 ft | 89 kts | 148° |
| 2026-04-28 20:31 | 32.81139 | 35.06153 | 1646 ft | 87 kts | 149° |
| 2026-04-28 20:31 | 32.80618 | 35.06511 | 1829 ft | 85 kts | 148° |
| 2026-04-28 20:31 | 32.80162 | 35.06953 | 1987 ft | 87 kts | 137° |
| 2026-04-28 20:32 | 32.79669 | 35.07349 | 2156 ft | 86 kts | 156° |
| 2026-04-28 20:32 | 32.79077 | 35.07379 | 2261 ft | 88 kts | 197° |
| 2026-04-28 20:32 | 32.78588 | 35.06951 | 2428 ft | 88 kts | 230° |
| 2026-04-28 20:32 | 32.78207 | 35.06405 | 2631 ft | 87 kts | 231° |
| 2026-04-28 20:33 | 32.77925 | 35.05779 | 2766 ft | 86 kts | 259° |
| 2026-04-28 20:33 | 32.78052 | 35.05099 | 2839 ft | 89 kts | 306° |
| 2026-04-28 20:33 | 32.78480 | 35.04599 | 3028 ft | 84 kts | 310° |
| 2026-04-28 20:33 | 32.78857 | 35.04092 | 3181 ft | 82 kts | 307° |
| 2026-04-28 20:34 | 32.79229 | 35.03585 | 3379 ft | 78 kts | 308° |
| 2026-04-28 20:34 | 32.79599 | 35.03097 | 3556 ft | 79 kts | 311° |
| 2026-04-28 20:34 | 32.79989 | 35.02631 | 3707 ft | 81 kts | 311° |
| 2026-04-28 20:34 | 32.80367 | 35.02151 | 3883 ft | 79 kts | 308° |
| 2026-04-28 20:35 | 32.80606 | 35.01823 | 3993 ft | 80 kts | 309° |
| 2026-04-28 20:35 | 32.80991 | 35.01343 | 4173 ft | 81 kts | 310° |
| 2026-04-28 20:35 | 32.81356 | 35.00838 | 4371 ft | 80 kts | 309° |
| 2026-04-28 20:35 | 32.81694 | 35.00314 | 4552 ft | 80 kts | 302° |
| 2026-04-28 20:36 | 32.81974 | 34.99732 | 4745 ft | 81 kts | 295° |
| 2026-04-28 20:36 | 32.82174 | 34.99103 | 4929 ft | 82 kts | 290° |
| 2026-04-28 20:36 | 32.82275 | 34.98419 | 5017 ft | 94 kts | 277° |
| 2026-04-28 20:36 | 32.82336 | 34.97623 | 5067 ft | 100 kts | 275° |
| 2026-04-28 20:37 | 32.82381 | 34.96770 | 5102 ft | 108 kts | 275° |
| 2026-04-28 20:37 | 32.82425 | 34.95881 | 5221 ft | 107 kts | 276° |
| 2026-04-28 20:37 | 32.82603 | 34.95026 | 5365 ft | 106 kts | 292° |
| 2026-04-28 20:37 | 32.82979 | 34.94291 | 5479 ft | 104 kts | 308° |
| 2026-04-28 20:38 | 32.83432 | 34.93639 | 5634 ft | 99 kts | 308° |
| 2026-04-28 20:38 | 32.83872 | 34.93025 | 5791 ft | 96 kts | 309° |
| 2026-04-28 20:38 | 32.84305 | 34.92433 | 5938 ft | 94 kts | 310° |
| 2026-04-28 20:38 | 32.84752 | 34.91860 | 6062 ft | 95 kts | 312° |
| 2026-04-28 20:39 | 32.85203 | 34.91289 | 6187 ft | 95 kts | 311° |
| 2026-04-28 20:39 | 32.85678 | 34.90742 | 6310 ft | 94 kts | 315° |
| 2026-04-28 20:39 | 32.86148 | 34.90203 | 6421 ft | 95 kts | 314° |
| 2026-04-28 20:39 | 32.86620 | 34.89674 | 6531 ft | 94 kts | 315° |
| 2026-04-28 20:40 | 32.87104 | 34.89140 | 6623 ft | 95 kts | 316° |
| 2026-04-28 20:40 | 32.87603 | 34.88628 | 6737 ft | 93 kts | 319° |
| 2026-04-28 20:40 | 32.88092 | 34.88131 | 6850 ft | 92 kts | 318° |
| 2026-04-28 20:40 | 32.88574 | 34.87626 | 6948 ft | 93 kts | 317° |
| 2026-04-28 20:41 | 32.89057 | 34.87117 | 7045 ft | 93 kts | 317° |
| 2026-04-28 20:41 | 32.89540 | 34.86608 | 7136 ft | 93 kts | 318° |
| 2026-04-28 20:41 | 32.90024 | 34.86098 | 7229 ft | 93 kts | 318° |
| 2026-04-28 20:41 | 32.90512 | 34.85586 | 7314 ft | 94 kts | 318° |
| 2026-04-28 20:42 | 32.91002 | 34.85074 | 7404 ft | 94 kts | 318° |
| 2026-04-28 20:42 | 32.91493 | 34.84561 | 7488 ft | 94 kts | 318° |
| 2026-04-28 20:42 | 32.91986 | 34.84047 | 7569 ft | 94 kts | 318° |
| 2026-04-28 20:42 | 32.92479 | 34.83534 | 7652 ft | 94 kts | 318° |
| 2026-04-28 20:43 | 32.92974 | 34.83018 | 7728 ft | 95 kts | 318° |
| 2026-04-28 20:43 | 32.93469 | 34.82503 | 7806 ft | 94 kts | 318° |
| 2026-04-28 20:43 | 32.93963 | 34.81987 | 7880 ft | 95 kts | 318° |
| 2026-04-28 20:43 | 32.94460 | 34.81469 | 7953 ft | 95 kts | 318° |
| 2026-04-28 20:44 | 32.94958 | 34.80949 | 8022 ft | 95 kts | 318° |
| 2026-04-28 20:44 | 32.95459 | 34.80427 | 8089 ft | 96 kts | 318° |
| 2026-04-28 20:44 | 32.95961 | 34.79904 | 8158 ft | 96 kts | 318° |
| 2026-04-28 20:44 | 32.96462 | 34.79381 | 8223 ft | 96 kts | 318° |
| 2026-04-28 20:45 | 32.96966 | 34.78856 | 8286 ft | 96 kts | 318° |
| 2026-04-28 20:45 | 32.97470 | 34.78331 | 8344 ft | 96 kts | 318° |
| 2026-04-28 20:45 | 32.97973 | 34.77806 | 8403 ft | 96 kts | 318° |
| 2026-04-28 20:45 | 32.98478 | 34.77279 | 8455 ft | 97 kts | 318° |
| 2026-04-28 20:46 | 32.98982 | 34.76752 | 8508 ft | 96 kts | 318° |
| 2026-04-28 20:46 | 32.99491 | 34.76223 | 8554 ft | 97 kts | 319° |
| 2026-04-28 20:46 | 33.00016 | 34.75718 | 8601 ft | 97 kts | 321° |
| 2026-04-28 20:46 | 33.00553 | 34.75223 | 8670 ft | 96 kts | 322° |
| 2026-04-28 20:47 | 33.01090 | 34.74734 | 8702 ft | 98 kts | 322° |
| 2026-04-28 20:47 | 33.01631 | 34.74246 | 8765 ft | 97 kts | 322° |
| 2026-04-28 20:47 | 33.02173 | 34.73757 | 8800 ft | 98 kts | 322° |
| 2026-04-28 20:47 | 33.02714 | 34.73271 | 8849 ft | 98 kts | 322° |
| 2026-04-28 20:48 | 33.03266 | 34.72784 | 8889 ft | 98 kts | 322° |
| 2026-04-28 20:48 | 33.03814 | 34.72304 | 8924 ft | 99 kts | 322° |
| 2026-04-28 20:48 | 33.04368 | 34.71820 | 8964 ft | 98 kts | 322° |
| 2026-04-28 20:48 | 33.04920 | 34.71339 | 8991 ft | 99 kts | 322° |
| 2026-04-28 20:49 | 33.05467 | 34.70862 | 9029 ft | 98 kts | 322° |
| 2026-04-28 20:49 | 33.06021 | 34.70378 | 9049 ft | 99 kts | 322° |
| 2026-04-28 20:49 | 33.06563 | 34.69906 | 9119 ft | 94 kts | 321° |
| 2026-04-28 20:49 | 33.07104 | 34.69433 | 9143 ft | 93 kts | 322° |
| 2026-04-28 20:50 | 33.07625 | 34.68979 | 9154 ft | 96 kts | 322° |
| 2026-04-28 20:50 | 33.08148 | 34.68523 | 9224 ft | 91 kts | 321° |
| 2026-04-28 20:50 | 33.08676 | 34.68063 | 9223 ft | 94 kts | 322° |
| 2026-04-28 20:50 | 33.09197 | 34.67610 | 9252 ft | 94 kts | 322° |
| 2026-04-28 20:51 | 33.09728 | 34.67148 | 9278 ft | 93 kts | 322° |
| 2026-04-28 20:51 | 33.10253 | 34.66692 | 9276 ft | 95 kts | 322° |
| 2026-04-28 20:51 | 33.10772 | 34.66242 | 9345 ft | 89 kts | 321° |
| 2026-04-28 20:51 | 33.11287 | 34.65795 | 9318 ft | 93 kts | 322° |
| 2026-04-28 20:52 | 33.11798 | 34.65350 | 9354 ft | 91 kts | 322° |
| 2026-04-28 20:52 | 33.12315 | 34.64901 | 9361 ft | 91 kts | 322° |
| 2026-04-28 20:52 | 33.12827 | 34.64455 | 9361 ft | 92 kts | 322° |
| 2026-04-28 20:52 | 33.13342 | 34.64007 | 9383 ft | 91 kts | 322° |
| 2026-04-28 20:53 | 33.14364 | 34.63115 | 9409 ft | 89 kts | 322° |
| 2026-04-28 20:53 | 33.14873 | 34.62671 | 9405 ft | 91 kts | 322° |
| 2026-04-28 20:53 | 33.15379 | 34.62230 | 9411 ft | 91 kts | 322° |
| 2026-04-28 20:54 | 33.15888 | 34.61786 | 9425 ft | 90 kts | 322° |
| 2026-04-28 20:54 | 33.16397 | 34.61343 | 9421 ft | 91 kts | 322° |
| 2026-04-28 20:54 | 33.16910 | 34.60896 | 9423 ft | 91 kts | 322° |
| 2026-04-28 20:54 | 33.17424 | 34.60448 | 9418 ft | 92 kts | 322° |
| 2026-04-28 20:55 | 33.17938 | 34.60000 | 9413 ft | 92 kts | 322° |
| 2026-04-28 20:55 | 33.18471 | 34.59535 | 9374 ft | 98 kts | 322° |
| 2026-04-28 20:55 | 33.18998 | 34.59072 | 9560 ft | 92 kts | 321° |
| 2026-04-28 20:55 | 33.19489 | 34.58605 | 9709 ft | 88 kts | 314° |
| 2026-04-28 20:56 | 33.19901 | 34.58066 | 9787 ft | 88 kts | 314° |
| 2026-04-28 20:56 | 33.20362 | 34.57609 | 9911 ft | 86 kts | 320° |
| 2026-04-28 20:56 | 33.20858 | 34.57186 | 9955 ft | 91 kts | 321° |
| 2026-04-28 20:56 | 33.21379 | 34.56733 | 10045 ft | 92 kts | 321° |
| 2026-04-28 20:57 | 33.21937 | 34.56242 | 10021 ft | 105 kts | 322° |
| 2026-04-28 20:57 | 33.22520 | 34.55735 | 10059 ft | 109 kts | 323° |
| 2026-04-28 20:57 | 33.23121 | 34.55219 | 10167 ft | 103 kts | 324° |
| 2026-04-28 20:57 | 33.23752 | 34.54681 | 10055 ft | 118 kts | 325° |
| 2026-04-28 20:58 | 33.24421 | 34.54108 | 10050 ft | 121 kts | 325° |
| 2026-04-28 20:58 | 33.25105 | 34.53518 | 10083 ft | 119 kts | 324° |
| 2026-04-28 20:58 | 33.25774 | 34.52937 | 10095 ft | 120 kts | 323° |
| 2026-04-28 20:58 | 33.26464 | 34.52333 | 10052 ft | 125 kts | 323° |
| 2026-04-28 20:59 | 33.27160 | 34.51718 | 10073 ft | 124 kts | 322° |
| 2026-04-28 20:59 | 33.27864 | 34.51094 | 10039 ft | 127 kts | 321° |
| 2026-04-28 20:59 | 33.28569 | 34.50480 | 10047 ft | 126 kts | 321° |
| 2026-04-28 20:59 | 33.29279 | 34.49862 | 10047 ft | 126 kts | 321° |
| 2026-04-28 21:00 | 33.29983 | 34.49248 | 10050 ft | 126 kts | 322° |
| 2026-04-28 21:00 | 33.30697 | 34.48639 | 10045 ft | 126 kts | 324° |
| 2026-04-28 21:00 | 33.31410 | 34.48039 | 10047 ft | 125 kts | 323° |
| 2026-04-28 21:00 | 33.32121 | 34.47430 | 10044 ft | 126 kts | 322° |
| 2026-04-28 21:01 | 33.32834 | 34.46823 | 10043 ft | 126 kts | 322° |
| 2026-04-28 21:01 | 33.33556 | 34.46221 | 10043 ft | 127 kts | 324° |
| 2026-04-28 21:01 | 33.34278 | 34.45625 | 10045 ft | 126 kts | 322° |
| 2026-04-28 21:01 | 33.34997 | 34.45021 | 10043 ft | 126 kts | 322° |
| 2026-04-28 21:02 | 33.35717 | 34.44418 | 10045 ft | 126 kts | 324° |
| 2026-04-28 21:02 | 33.36441 | 34.43819 | 10049 ft | 126 kts | 323° |
| 2026-04-28 21:02 | 33.37158 | 34.43218 | 10055 ft | 126 kts | 322° |
| 2026-04-28 21:02 | 33.37874 | 34.42613 | 10053 ft | 126 kts | 323° |
| 2026-04-28 21:03 | 33.38597 | 34.42013 | 10052 ft | 126 kts | 324° |
| 2026-04-28 21:03 | 33.39319 | 34.41415 | 10053 ft | 126 kts | 322° |
| 2026-04-28 21:03 | 33.40038 | 34.40810 | 10060 ft | 126 kts | 322° |
| 2026-04-28 21:03 | 33.40757 | 34.40210 | 10058 ft | 126 kts | 324° |
| 2026-04-28 21:04 | 33.41470 | 34.39620 | 10064 ft | 126 kts | 323° |
| 2026-04-28 21:04 | 33.42187 | 34.39017 | 10072 ft | 126 kts | 322° |
| 2026-04-28 21:04 | 33.42906 | 34.38413 | 10076 ft | 126 kts | 324° |
| 2026-04-28 21:04 | 33.43628 | 34.37816 | 10084 ft | 126 kts | 323° |
| 2026-04-28 21:05 | 33.44342 | 34.37218 | 10091 ft | 125 kts | 322° |
| 2026-04-28 21:05 | 33.45056 | 34.36616 | 10090 ft | 126 kts | 323° |
| 2026-04-28 21:05 | 33.45776 | 34.36020 | 10093 ft | 125 kts | 323° |
| 2026-04-28 21:05 | 33.46491 | 34.35422 | 10094 ft | 126 kts | 322° |
| 2026-04-28 21:06 | 33.47206 | 34.34817 | 10063 ft | 128 kts | 322° |
| 2026-04-28 21:06 | 33.47958 | 34.34185 | 9993 ft | 131 kts | 323° |
| 2026-04-28 21:06 | 33.48695 | 34.33569 | 9983 ft | 130 kts | 323° |
| 2026-04-28 21:06 | 33.49431 | 34.32956 | 10012 ft | 126 kts | 323° |
| 2026-04-28 21:07 | 33.50159 | 34.32345 | 9972 ft | 129 kts | 323° |
| 2026-04-28 21:07 | 33.50885 | 34.31740 | 10002 ft | 125 kts | 323° |
| 2026-04-28 21:07 | 33.51608 | 34.31135 | 9969 ft | 128 kts | 322° |
| 2026-04-28 21:07 | 33.52335 | 34.30527 | 9981 ft | 126 kts | 323° |
| 2026-04-28 21:08 | 33.53059 | 34.29926 | 9969 ft | 128 kts | 323° |
| 2026-04-28 21:08 | 33.53787 | 34.29316 | 9971 ft | 127 kts | 323° |
| 2026-04-28 21:08 | 33.54512 | 34.28709 | 9969 ft | 128 kts | 323° |
| 2026-04-28 21:08 | 33.55243 | 34.28101 | 9968 ft | 127 kts | 323° |
| 2026-04-28 21:09 | 33.55970 | 34.27497 | 9967 ft | 127 kts | 322° |
| 2026-04-28 21:09 | 33.56695 | 34.26890 | 9968 ft | 127 kts | 323° |
| 2026-04-28 21:09 | 33.57424 | 34.26287 | 9965 ft | 127 kts | 324° |
| 2026-04-28 21:09 | 33.58153 | 34.25684 | 9971 ft | 127 kts | 322° |
| 2026-04-28 21:10 | 33.58878 | 34.25077 | 9970 ft | 127 kts | 323° |
| 2026-04-28 21:10 | 33.59608 | 34.24470 | 9967 ft | 128 kts | 324° |
| 2026-04-28 21:10 | 33.60338 | 34.23867 | 9969 ft | 127 kts | 323° |
| 2026-04-28 21:10 | 33.61064 | 34.23258 | 9971 ft | 127 kts | 322° |
| 2026-04-28 21:11 | 33.61792 | 34.22652 | 9968 ft | 128 kts | 324° |
| 2026-04-28 21:11 | 33.62518 | 34.22069 | 9973 ft | 127 kts | 325° |
| 2026-04-28 21:11 | 33.63286 | 34.21538 | 9976 ft | 128 kts | 329° |
| 2026-04-28 21:11 | 33.64079 | 34.21049 | 9971 ft | 128 kts | 331° |
| 2026-04-28 21:12 | 33.64878 | 34.20574 | 9967 ft | 129 kts | 331° |
| 2026-04-28 21:12 | 33.65682 | 34.20097 | 9965 ft | 129 kts | 331° |
| 2026-04-28 21:12 | 33.66480 | 34.19624 | 9971 ft | 128 kts | 330° |
| 2026-04-28 21:12 | 33.67277 | 34.19151 | 9958 ft | 128 kts | 331° |
| 2026-04-28 21:13 | 33.68078 | 34.18678 | 9957 ft | 128 kts | 332° |
| 2026-04-28 21:13 | 33.68875 | 34.18215 | 9967 ft | 127 kts | 330° |
| 2026-04-28 21:13 | 33.69672 | 34.17744 | 9951 ft | 128 kts | 331° |
| 2026-04-28 21:13 | 33.70473 | 34.17275 | 9955 ft | 128 kts | 332° |
| 2026-04-28 21:14 | 33.71274 | 34.16804 | 9935 ft | 129 kts | 331° |
| 2026-04-28 21:14 | 33.72072 | 34.16333 | 9945 ft | 127 kts | 330° |
| 2026-04-28 21:14 | 33.72870 | 34.15861 | 9946 ft | 127 kts | 332° |
| 2026-04-28 21:14 | 33.73659 | 34.15395 | 9942 ft | 127 kts | 331° |
| 2026-04-28 21:15 | 33.74457 | 34.14921 | 9940 ft | 127 kts | 332° |
| 2026-04-28 21:15 | 33.75241 | 34.14462 | 9958 ft | 125 kts | 330° |
| 2026-04-28 21:15 | 33.76033 | 34.13991 | 9935 ft | 127 kts | 332° |
| 2026-04-28 21:15 | 33.76803 | 34.13531 | 9963 ft | 125 kts | 330° |
| 2026-04-28 21:16 | 33.77578 | 34.13049 | 9946 ft | 126 kts | 329° |
| 2026-04-28 21:16 | 33.78354 | 34.12554 | 9942 ft | 126 kts | 329° |
| 2026-04-28 21:16 | 33.79135 | 34.12056 | 9924 ft | 128 kts | 330° |
| 2026-04-28 21:16 | 33.79913 | 34.11562 | 9952 ft | 125 kts | 328° |
| 2026-04-28 21:17 | 33.80678 | 34.11054 | 9915 ft | 128 kts | 328° |
| 2026-04-28 21:17 | 33.81446 | 34.10525 | 9936 ft | 125 kts | 328° |
| 2026-04-28 21:17 | 33.82192 | 34.10007 | 9949 ft | 125 kts | 327° |
| 2026-04-28 21:17 | 33.82948 | 34.09483 | 9950 ft | 124 kts | 328° |
| 2026-04-28 21:18 | 33.83694 | 34.08969 | 9962 ft | 124 kts | 326° |
| 2026-04-28 21:18 | 33.84452 | 34.08436 | 9952 ft | 125 kts | 328° |
| 2026-04-28 21:18 | 33.85205 | 34.07938 | 9980 ft | 124 kts | 330° |
| 2026-04-28 21:18 | 33.86004 | 34.07508 | 9964 ft | 126 kts | 334° |
| 2026-04-28 21:19 | 33.86807 | 34.07114 | 9972 ft | 125 kts | 335° |
| 2026-04-28 21:19 | 33.87624 | 34.06722 | 9964 ft | 126 kts | 335° |
| 2026-04-28 21:19 | 33.88428 | 34.06335 | 9984 ft | 124 kts | 334° |
| 2026-04-28 21:19 | 33.89241 | 34.05934 | 9948 ft | 128 kts | 336° |
| 2026-04-28 21:20 | 33.90059 | 34.05538 | 9974 ft | 125 kts | 336° |
| 2026-04-28 21:20 | 33.90871 | 34.05149 | 9971 ft | 126 kts | 334° |
| 2026-04-28 21:20 | 33.91681 | 34.04756 | 9982 ft | 125 kts | 334° |
| 2026-04-28 21:20 | 33.92497 | 34.04364 | 9978 ft | 126 kts | 336° |
| 2026-04-28 21:21 | 33.93297 | 34.03992 | 9997 ft | 125 kts | 335° |
| 2026-04-28 21:21 | 33.94114 | 34.03602 | 9979 ft | 127 kts | 335° |
| 2026-04-28 21:21 | 33.94928 | 34.03214 | 9987 ft | 126 kts | 335° |
| 2026-04-28 21:21 | 33.95749 | 34.02825 | 9989 ft | 126 kts | 335° |
| 2026-04-28 21:22 | 33.96562 | 34.02435 | 9997 ft | 126 kts | 334° |
| 2026-04-28 21:22 | 33.97379 | 34.02039 | 9997 ft | 127 kts | 336° |
| 2026-04-28 21:22 | 33.98198 | 34.01649 | 10010 ft | 126 kts | 335° |
| 2026-04-28 21:22 | 33.98736 | 34.01399 | 10033 ft | 124 kts | 335° |
| 2026-04-28 21:23 | 33.99819 | 34.00888 | 10023 ft | 125 kts | 336° |
| 2026-04-28 21:23 | 34.00627 | 34.00517 | 10045 ft | 123 kts | 335° |
| 2026-04-28 21:23 | 34.01427 | 34.00152 | 10041 ft | 124 kts | 334° |
| 2026-04-28 21:23 | 34.02237 | 33.99773 | 10014 ft | 126 kts | 336° |
| 2026-04-28 21:24 | 34.03049 | 33.99396 | 10036 ft | 124 kts | 336° |
| 2026-04-28 21:24 | 34.03582 | 33.99154 | 10043 ft | 124 kts | 335° |
| 2026-04-28 21:24 | 34.04678 | 33.98680 | 10008 ft | 127 kts | 338° |
| 2026-04-28 21:24 | 34.05502 | 33.98349 | 10039 ft | 125 kts | 338° |
| 2026-04-28 21:25 | 34.06339 | 33.98018 | 10024 ft | 126 kts | 338° |
| 2026-04-28 21:25 | 34.06882 | 33.97802 | 10047 ft | 124 kts | 337° |
| 2026-04-28 21:25 | 34.07993 | 33.97360 | 10038 ft | 125 kts | 338° |
| 2026-04-28 21:25 | 34.08536 | 33.97152 | 10056 ft | 123 kts | 338° |
| 2026-04-28 21:26 | 34.09357 | 33.96835 | 10030 ft | 125 kts | 338° |
| 2026-04-28 21:26 | 34.10192 | 33.96499 | 10003 ft | 127 kts | 339° |
| 2026-04-28 21:26 | 34.11017 | 33.96179 | 10038 ft | 124 kts | 337° |
| 2026-04-28 21:26 | 34.11846 | 33.95843 | 9989 ft | 128 kts | 338° |
| 2026-04-28 21:27 | 34.12681 | 33.95505 | 10021 ft | 125 kts | 339° |
| 2026-04-28 21:27 | 34.13514 | 33.95175 | 9982 ft | 128 kts | 338° |
| 2026-04-28 21:27 | 34.14364 | 33.94841 | 9978 ft | 128 kts | 338° |
| 2026-04-28 21:27 | 34.15212 | 33.94508 | 9972 ft | 127 kts | 338° |
| 2026-04-28 21:28 | 34.16054 | 33.94209 | 9972 ft | 127 kts | 339° |
| 2026-04-28 21:28 | 34.16917 | 33.93923 | 9951 ft | 128 kts | 341° |
| 2026-04-28 21:28 | 34.17771 | 33.93643 | 9965 ft | 127 kts | 341° |
| 2026-04-28 21:28 | 34.18626 | 33.93374 | 9962 ft | 127 kts | 341° |
| 2026-04-28 21:29 | 34.19488 | 33.93091 | 9944 ft | 129 kts | 341° |
| 2026-04-28 21:29 | 34.20351 | 33.92803 | 9947 ft | 128 kts | 341° |
| 2026-04-28 21:29 | 34.21204 | 33.92535 | 9986 ft | 125 kts | 340° |
| 2026-04-28 21:29 | 34.22061 | 33.92255 | 9944 ft | 130 kts | 342° |
| 2026-04-28 21:30 | 34.22921 | 33.91994 | 10005 ft | 124 kts | 341° |
| 2026-04-28 21:30 | 34.23764 | 33.91744 | 9980 ft | 127 kts | 341° |
| 2026-04-28 21:30 | 34.24623 | 33.91470 | 9966 ft | 128 kts | 342° |
| 2026-04-28 21:30 | 34.25473 | 33.91195 | 9990 ft | 124 kts | 340° |
| 2026-04-28 21:31 | 34.26312 | 33.90893 | 9938 ft | 129 kts | 339° |
| 2026-04-28 21:31 | 34.27158 | 33.90580 | 9985 ft | 125 kts | 339° |
| 2026-04-28 21:31 | 34.27984 | 33.90253 | 9964 ft | 128 kts | 338° |
| 2026-04-28 21:31 | 34.28819 | 33.89917 | 9988 ft | 125 kts | 337° |
| 2026-04-28 21:32 | 34.29649 | 33.89570 | 9970 ft | 126 kts | 337° |
| 2026-04-28 21:32 | 34.30474 | 33.89235 | 9987 ft | 124 kts | 337° |
| 2026-04-28 21:32 | 34.31291 | 33.88890 | 9979 ft | 125 kts | 335° |
| 2026-04-28 21:32 | 34.32113 | 33.88506 | 9935 ft | 128 kts | 335° |
| 2026-04-28 21:33 | 34.32928 | 33.88132 | 9994 ft | 123 kts | 334° |
| 2026-04-28 21:33 | 34.33749 | 33.87743 | 9907 ft | 130 kts | 336° |
| 2026-04-28 21:33 | 34.34590 | 33.87327 | 9901 ft | 129 kts | 336° |
| 2026-04-28 21:33 | 34.35405 | 33.86942 | 9970 ft | 123 kts | 337° |
| 2026-04-28 21:34 | 34.36218 | 33.86598 | 9948 ft | 126 kts | 338° |
| 2026-04-28 21:34 | 34.37079 | 33.86251 | 9817 ft | 134 kts | 339° |
| 2026-04-28 21:34 | 34.37968 | 33.85836 | 9641 ft | 141 kts | 335° |
| 2026-04-28 21:34 | 34.38870 | 33.85375 | 9536 ft | 140 kts | 333° |
| 2026-04-28 21:35 | 34.39794 | 33.84922 | 9298 ft | 148 kts | 336° |
| 2026-04-28 21:35 | 34.40770 | 33.84463 | 9073 ft | 150 kts | 334° |
| 2026-04-28 21:35 | 34.41711 | 33.83921 | 8883 ft | 150 kts | 332° |
| 2026-04-28 21:35 | 34.42645 | 33.83343 | 8660 ft | 153 kts | 330° |
| 2026-04-28 21:36 | 34.43619 | 33.82792 | 8431 ft | 154 kts | 335° |
| 2026-04-28 21:36 | 34.44603 | 33.82313 | 8257 ft | 151 kts | 333° |
| 2026-04-28 21:36 | 34.45573 | 33.81796 | 8044 ft | 153 kts | 332° |
| 2026-04-28 21:36 | 34.46509 | 33.81229 | 7913 ft | 149 kts | 329° |
| 2026-04-28 21:37 | 34.47425 | 33.80665 | 7738 ft | 148 kts | 327° |
| 2026-04-28 21:37 | 34.48335 | 33.80049 | 7478 ft | 152 kts | 328° |
| 2026-04-28 21:37 | 34.49294 | 33.79424 | 7105 ft | 159 kts | 329° |
| 2026-04-28 21:37 | 34.50288 | 33.78785 | 6734 ft | 162 kts | 329° |
| 2026-04-28 21:38 | 34.51287 | 33.78142 | 6369 ft | 164 kts | 330° |
| 2026-04-28 21:38 | 34.52295 | 33.77507 | 6022 ft | 164 kts | 330° |
| 2026-04-28 21:38 | 34.53329 | 33.76886 | 5577 ft | 168 kts | 332° |
| 2026-04-28 21:38 | 34.54389 | 33.76310 | 5222 ft | 165 kts | 332° |
| 2026-04-28 21:39 | 34.55447 | 33.75735 | 4685 ft | 167 kts | 333° |
| 2026-04-28 21:39 | 34.56525 | 33.75196 | 4170 ft | 169 kts | 335° |
| 2026-04-28 21:39 | 34.57611 | 33.74731 | 3974 ft | 157 kts | 336° |
| 2026-04-28 21:39 | 34.58607 | 33.74359 | 3933 ft | 143 kts | 339° |
| 2026-04-28 21:40 | 34.59523 | 33.74002 | 3930 ft | 136 kts | 336° |
| 2026-04-28 21:40 | 34.60414 | 33.73664 | 3922 ft | 133 kts | 339° |
| 2026-04-28 21:40 | 34.61317 | 33.73344 | 3849 ft | 137 kts | 342° |
| 2026-04-28 21:40 | 34.62241 | 33.73078 | 3797 ft | 136 kts | 345° |
| 2026-04-28 21:41 | 34.63168 | 33.72918 | 3827 ft | 130 kts | 347° |
| 2026-04-28 21:41 | 34.64040 | 33.72794 | 3913 ft | 125 kts | 346° |
| 2026-04-28 21:41 | 34.64915 | 33.72663 | 3930 ft | 126 kts | 348° |
| 2026-04-28 21:41 | 34.65777 | 33.72561 | 3981 ft | 123 kts | 349° |
| 2026-04-28 21:42 | 34.66631 | 33.72463 | 4022 ft | 124 kts | 351° |
| 2026-04-28 21:42 | 34.67503 | 33.72400 | 4028 ft | 125 kts | 352° |
| 2026-04-28 21:42 | 34.68367 | 33.72284 | 4032 ft | 126 kts | 346° |
| 2026-04-28 21:42 | 34.69083 | 33.71747 | 4017 ft | 119 kts | 309° |
| 2026-04-28 21:43 | 34.69357 | 33.70835 | 3954 ft | 116 kts | 273° |
| 2026-04-28 21:43 | 34.69274 | 33.69823 | 3735 ft | 128 kts | 259° |
| 2026-04-28 21:43 | 34.69072 | 33.68749 | 3552 ft | 133 kts | 257° |
| 2026-04-28 21:43 | 34.68859 | 33.67626 | 3352 ft | 139 kts | 258° |
| 2026-04-28 21:44 | 34.68638 | 33.66475 | 3223 ft | 139 kts | 258° |
| 2026-04-28 21:44 | 34.68418 | 33.65341 | 3108 ft | 138 kts | 257° |
| 2026-04-28 21:44 | 34.68205 | 33.64207 | 2996 ft | 137 kts | 259° |
| 2026-04-28 21:44 | 34.68040 | 33.63063 | 2868 ft | 138 kts | 262° |
| 2026-04-28 21:45 | 34.67912 | 33.61908 | 2772 ft | 136 kts | 263° |
| 2026-04-28 21:45 | 34.67784 | 33.60773 | 2673 ft | 137 kts | 262° |
| 2026-04-28 21:45 | 34.67664 | 33.59614 | 2581 ft | 138 kts | 266° |
| 2026-04-28 21:45 | 34.67747 | 33.58449 | 2441 ft | 141 kts | 284° |
| 2026-04-28 21:46 | 34.68111 | 33.57359 | 2388 ft | 137 kts | 293° |
| 2026-04-28 21:46 | 34.68494 | 33.56297 | 2310 ft | 137 kts | 292° |
| 2026-04-28 21:46 | 34.68833 | 33.55212 | 2202 ft | 138 kts | 289° |
| 2026-04-28 21:46 | 34.69165 | 33.54118 | 2111 ft | 137 kts | 290° |
| 2026-04-28 21:47 | 34.69497 | 33.53047 | 2046 ft | 136 kts | 290° |
| 2026-04-28 21:47 | 34.69837 | 33.51998 | 2065 ft | 132 kts | 291° |
| 2026-04-28 21:47 | 34.70170 | 33.50945 | 2008 ft | 134 kts | 290° |
| 2026-04-28 21:47 | 34.70497 | 33.49897 | 1994 ft | 132 kts | 292° |
| 2026-04-28 21:48 | 34.71015 | 33.48973 | 1986 ft | 133 kts | 311° |
| 2026-04-28 21:48 | 34.71678 | 33.48214 | 2010 ft | 129 kts | 316° |
| 2026-04-28 21:48 | 34.72416 | 33.47562 | 1964 ft | 132 kts | 329° |
| 2026-04-28 21:48 | 34.73261 | 33.47155 | 2004 ft | 131 kts | 342° |
| 2026-04-28 21:49 | 34.74180 | 33.47054 | 1983 ft | 134 kts | 359° |
| 2026-04-28 21:49 | 34.75092 | 33.47278 | 1995 ft | 134 kts | 17° |
| 2026-04-28 21:49 | 34.75887 | 33.47890 | 1966 ft | 138 kts | 39° |
| 2026-04-28 21:49 | 34.76575 | 33.48685 | 1999 ft | 136 kts | 42° |
| 2026-04-28 21:50 | 34.77240 | 33.49498 | 1928 ft | 136 kts | 44° |
| 2026-04-28 21:50 | 34.77869 | 33.50335 | 1949 ft | 132 kts | 45° |
| 2026-04-28 21:50 | 34.78488 | 33.51158 | 1963 ft | 131 kts | 46° |
| 2026-04-28 21:50 | 34.79102 | 33.51970 | 1959 ft | 128 kts | 47° |
| 2026-04-28 21:51 | 34.79677 | 33.52706 | 1932 ft | 114 kts | 47° |
| 2026-04-28 21:51 | 34.80223 | 33.53395 | 1797 ft | 114 kts | 46° |
| 2026-04-28 21:51 | 34.80766 | 33.54092 | 1629 ft | 114 kts | 48° |
| 2026-04-28 21:51 | 34.81270 | 33.54825 | 1474 ft | 112 kts | 51° |
| 2026-04-28 21:52 | 34.81746 | 33.55520 | 1347 ft | 100 kts | 51° |
| 2026-04-28 21:52 | 34.82208 | 33.56115 | 1195 ft | 95 kts | 42° |
| 2026-04-28 21:52 | 34.82725 | 33.56602 | 1006 ft | 93 kts | 36° |
| 2026-04-28 21:52 | 34.83158 | 33.57151 | 851 ft | 88 kts | 46° |
| 2026-04-28 21:53 | 34.83570 | 33.57700 | 726 ft | 88 kts | 41° |
| 2026-04-28 21:53 | 34.84007 | 33.58228 | 625 ft | 89 kts | 39° |
| 2026-04-28 21:53 | 34.84449 | 33.58765 | 516 ft | 89 kts | 39° |
| 2026-04-28 21:53 | 34.84891 | 33.59290 | 411 ft | 89 kts | 40° |
| 2026-04-28 21:54 | 34.85322 | 33.59848 | 315 ft | 91 kts | 41° |
| 2026-04-28 21:54 | 34.85760 | 33.60391 | 251 ft | 89 kts | 43° |
| 2026-04-28 21:54 | 34.86197 | 33.60938 | 124 ft | 91 kts | 41° |
| 2026-04-28 21:54 | 34.86632 | 33.61483 | 22 ft | 87 kts | 42° |
| 2026-04-28 21:55 | 34.86988 | 33.61919 | 15 ft | 59 kts | 45° |
| 2026-04-28 21:55 | 34.87221 | 33.62201 | 13 ft | 34 kts | 43° |
| 2026-04-28 21:55 | 34.87347 | 33.62309 | 12 ft | 16 kts | 351° |
| 2026-04-28 21:55 | 34.87413 | 33.62244 | 14 ft | 10 kts | 314° |
| 2026-04-28 21:56 | 34.87462 | 33.62192 | 13 ft | 9 kts | 338° |
| 2026-04-28 21:56 | 34.87539 | 33.62233 | 11 ft | 16 kts | 45° |
| 2026-04-28 21:56 | 34.87616 | 33.62328 | 10 ft | 15 kts | 44° |
| 2026-04-28 21:56 | 34.87681 | 33.62406 | 12 ft | 12 kts | 45° |
| 2026-04-28 21:57 | 34.87755 | 33.62502 | 12 ft | 18 kts | 47° |
| 2026-04-28 21:57 | 34.87856 | 33.62623 | 14 ft | 22 kts | 44° |
| 2026-04-28 21:57 | 34.87965 | 33.62754 | 14 ft | 22 kts | 49° |
| 2026-04-28 21:57 | 34.88069 | 33.62881 | 14 ft | 18 kts | 46° |
| 2026-04-28 21:58 | 34.88148 | 33.62977 | 13 ft | 15 kts | 45° |
| 2026-04-28 21:58 | 34.88228 | 33.63069 | 11 ft | 14 kts | 24° |
| 2026-04-28 21:58 | 34.88313 | 33.63016 | 9 ft | 15 kts | 316° |
| 2026-04-28 21:58 | 34.88364 | 33.62953 | 9 ft | 9 kts | 315° |
| 2026-04-28 21:59 | 34.88409 | 33.62898 | 9 ft | 9 kts | 315° |
| 2026-04-28 21:59 | 34.88454 | 33.62844 | 9 ft | 6 kts | 315° |
| 2026-04-28 21:59 | 34.88483 | 33.62800 | 9 ft | 8 kts | 261° |
| 2026-04-28 22:00 | 34.88437 | 33.62740 | 9 ft | 0 kts | 224° |